Time;durP1;ratioP1;P1;durP2;ratioP2;P2;SDS_P1;SDS_P2;PMS_P1;PMS_P2;Temp;Humidity;BMP_temperature;BMP_pressure;BME280_temperature;BME280_humidity;BME280_pressure;Samples;Min_cycle;Max_cycle;Signal;HPM_P1;HPM_P2
2023/05/23 00:00:23;;;;;;;13.43;11.30;;;14.50;55.40;;;;;;5012042;28;20172;-69
2023/05/23 00:02:49;;;;;;;13.20;10.50;;;14.50;56.50;;;;;;5041582;22;20408;-70
2023/05/23 00:05:16;;;;;;;12.77;11.37;;;14.50;55.80;;;;;;5030726;28;20251;-74
2023/05/23 00:07:45;;;;;;;15.97;11.87;;;14.50;56.20;;;;;;5030769;28;20198;-72
2023/05/23 00:10:11;;;;;;;14.37;10.90;;;14.50;56.40;;;;;;5012972;28;20852;-71
2023/05/23 00:12:38;;;;;;;11.67;10.50;;;14.50;57.90;;;;;;5030123;28;20461;-71
2023/05/23 00:15:07;;;;;;;15.00;10.20;;;14.50;57.30;;;;;;5030621;28;20168;-71
2023/05/23 00:17:35;;;;;;;11.73;9.90;;;14.50;56.90;;;;;;5030700;28;20437;-71
2023/05/23 00:20:02;;;;;;;14.60;10.60;;;14.60;58.60;;;;;;5034075;28;20409;-71
2023/05/23 00:22:27;;;;;;;14.43;10.10;;;14.70;58.50;;;;;;5034129;28;20949;-71
2023/05/23 00:24:53;;;;;;;14.60;12.20;;;14.70;55.80;;;;;;5034316;28;20445;-71
2023/05/23 00:27:18;;;;;;;12.70;11.10;;;14.90;56.00;;;;;;5034300;28;20274;-72
2023/05/23 00:29:44;;;;;;;13.20;10.20;;;14.90;54.80;;;;;;5016397;28;20600;-71
2023/05/23 00:32:09;;;;;;;13.53;10.63;;;15.00;54.50;;;;;;5033799;28;20560;-71
2023/05/23 00:34:36;;;;;;;13.00;10.73;;;15.10;52.20;;;;;;5034162;28;20269;-71
2023/05/23 00:37:03;;;;;;;12.90;10.87;;;15.20;51.50;;;;;;5033719;28;20186;-71
2023/05/23 00:39:29;;;;;;;13.13;10.40;;;15.30;50.20;;;;;;5033881;28;20448;-71
2023/05/23 00:41:55;;;;;;;12.90;10.90;;;15.40;49.90;;;;;;5015864;28;20453;-71
2023/05/23 00:44:20;;;;;;;10.97;8.30;;;15.40;49.40;;;;;;5033882;28;20596;-71
2023/05/23 00:46:50;;;;;;;12.60;9.13;;;15.50;48.30;;;;;;5015993;28;20426;-71
2023/05/23 00:49:18;;;;;;;12.30;8.50;;;15.50;48.20;;;;;;5033798;28;20662;-71
2023/05/23 00:51:45;;;;;;;11.97;9.70;;;15.50;47.90;;;;;;5033540;28;20548;-71
2023/05/23 00:54:12;;;;;;;12.43;10.00;;;15.60;46.30;;;;;;5033673;28;20487;-71
2023/05/23 00:56:38;;;;;;;9.83;8.83;;;15.60;46.10;;;;;;5033707;28;20448;-71
2023/05/23 00:59:05;;;;;;;10.47;9.20;;;15.70;45.40;;;;;;5015714;28;20422;-71
2023/05/23 01:01:32;;;;;;;13.80;10.50;;;15.70;45.30;;;;;;5033290;28;20418;-71
2023/05/23 01:03:57;;;;;;;13.53;12.20;;;15.70;45.00;;;;;;5033352;28;20528;-71
2023/05/23 01:06:23;;;;;;;12.20;9.50;;;15.70;45.80;;;;;;5033582;28;20939;-71
2023/05/23 01:08:49;;;;;;;16.13;8.93;;;15.70;45.30;;;;;;5033485;28;20175;-71
2023/05/23 01:11:53;;;;;;;11.07;8.40;;;15.80;44.80;;;;;;5033258;28;20559;-71
2023/05/23 01:14:30;;;;;;;13.37;9.07;;;15.90;45.20;;;;;;5033346;28;20492;-71
2023/05/23 01:17:14;;;;;;;14.47;10.20;;;15.90;44.20;;;;;;5015459;28;20504;-71
2023/05/23 01:20:03;;;;;;;13.30;8.67;;;16.00;44.50;;;;;;5033385;28;20406;-72
2023/05/23 01:22:38;;;;;;;10.10;8.30;;;16.00;43.30;;;;;;5032881;28;20533;-71
2023/05/23 01:25:20;;;;;;;11.07;9.50;;;16.10;43.30;;;;;;5033268;28;20475;-71
2023/05/23 01:27:54;;;;;;;13.73;10.93;;;16.10;43.70;;;;;;5033238;28;20417;-72
2023/05/23 01:30:22;;;;;;;14.20;12.37;;;16.20;43.70;;;;;;5032132;28;20417;-71
2023/05/23 01:32:50;;;;;;;12.07;10.10;;;16.20;43.40;;;;;;5032681;28;20503;-71
2023/05/23 01:35:22;;;;;;;12.80;10.57;;;16.30;42.60;;;;;;5015098;28;20458;-71
2023/05/23 01:37:47;;;;;;;11.57;10.20;;;16.30;42.20;;;;;;5033018;28;20407;-71
2023/05/23 01:40:13;;;;;;;13.90;10.23;;;16.30;41.80;;;;;;5033037;28;20406;-71
2023/05/23 01:42:39;;;;;;;12.73;11.43;;;16.30;41.80;;;;;;5032556;28;20199;-71
2023/05/23 01:45:05;;;;;;;14.93;10.10;;;16.30;42.00;;;;;;5032818;28;20591;-71
2023/05/23 01:47:31;;;;;;;16.43;13.80;;;16.40;41.90;;;;;;5033023;28;20481;-71
2023/05/23 01:49:59;;;;;;;11.07;9.00;;;16.40;41.30;;;;;;5032900;28;20963;-71
2023/05/23 01:52:25;;;;;;;13.40;10.43;;;16.40;41.90;;;;;;5032285;28;21004;-71
2023/05/23 01:54:51;;;;;;;11.70;10.33;;;16.40;41.90;;;;;;5032559;28;20414;-71
2023/05/23 01:57:19;;;;;;;14.17;11.03;;;16.50;42.00;;;;;;5032620;28;20407;-71
2023/05/23 01:59:44;;;;;;;12.43;9.53;;;16.50;42.00;;;;;;5014793;28;20903;-71
2023/05/23 02:02:10;;;;;;;14.77;11.30;;;16.50;42.00;;;;;;5032084;28;20426;-71
2023/05/23 02:04:36;;;;;;;13.43;11.13;;;16.60;42.10;;;;;;5032545;28;20636;-71
2023/05/23 02:07:01;;;;;;;14.30;11.87;;;16.60;41.70;;;;;;5032672;28;20175;-72
2023/05/23 02:09:27;;;;;;;14.80;11.30;;;16.60;42.00;;;;;;5032699;28;20183;-71
2023/05/23 02:11:53;;;;;;;16.63;12.97;;;16.70;41.20;;;;;;5032634;28;20572;-72
2023/05/23 02:14:18;;;;;;;14.20;11.43;;;16.70;41.10;;;;;;5032337;28;20237;-71
2023/05/23 02:16:44;;;;;;;15.53;11.03;;;16.80;40.70;;;;;;5032576;28;20930;-71
2023/05/23 02:19:10;;;;;;;14.87;11.63;;;16.80;41.00;;;;;;5032256;28;20182;-71
2023/05/23 02:21:36;;;;;;;12.97;10.40;;;16.80;40.80;;;;;;5032230;28;20184;-72
2023/05/23 02:24:02;;;;;;;14.63;11.00;;;16.80;41.70;;;;;;5032049;28;20199;-72
2023/05/23 02:26:27;;;;;;;28.93;13.13;;;16.80;41.90;;;;;;5032435;28;20422;-71
2023/05/23 02:28:53;;;;;;;17.27;13.60;;;16.80;42.00;;;;;;5031971;28;20171;-71
2023/05/23 02:31:19;;;;;;;19.30;15.43;;;16.90;41.90;;;;;;5031826;28;20290;-71
2023/05/23 02:33:44;;;;;;;22.10;17.37;;;16.80;41.50;;;;;;5013826;28;21020;-71
2023/05/23 02:36:10;;;;;;;18.57;14.20;;;16.90;40.30;;;;;;5031870;28;20178;-71
2023/05/23 02:38:35;;;;;;;22.30;16.93;;;16.90;39.30;;;;;;5032068;28;20526;-71
2023/05/23 02:41:01;;;;;;;21.63;16.20;;;16.90;39.80;;;;;;5031829;28;20263;-72
2023/05/23 02:43:27;;;;;;;21.30;17.63;;;17.00;39.30;;;;;;5031431;28;20274;-71
2023/05/23 02:45:52;;;;;;;29.60;22.33;;;17.00;39.20;;;;;;5031848;28;20206;-72
2023/05/23 02:48:18;;;;;;;27.80;20.27;;;16.90;39.10;;;;;;5031728;28;20536;-72
2023/05/23 02:50:43;;;;;;;34.00;25.00;;;16.90;40.00;;;;;;5031560;28;20203;-71
2023/05/23 02:53:09;;;;;;;34.17;24.30;;;16.90;39.90;;;;;;5031407;28;20207;-72
2023/05/23 02:55:35;;;;;;;34.27;26.57;;;16.90;40.80;;;;;;5013814;28;20190;-72
2023/05/23 02:58:04;;;;;;;39.00;25.77;;;17.00;40.50;;;;;;5031571;28;20172;-72
2023/05/23 03:00:31;;;;;;;34.67;25.27;;;17.00;40.20;;;;;;5031513;28;20808;-71
2023/05/23 03:02:56;;;;;;;38.57;23.87;;;17.00;40.70;;;;;;5030640;28;20457;-72
2023/05/23 03:05:22;;;;;;;36.03;24.87;;;17.00;40.70;;;;;;5030647;28;20414;-72
2023/05/23 03:07:47;;;;;;;37.00;26.60;;;17.00;40.40;;;;;;5030643;28;20168;-72
2023/05/23 03:10:13;;;;;;;45.00;33.47;;;17.00;41.50;;;;;;5030523;28;20167;-71
2023/05/23 03:12:39;;;;;;;45.60;29.13;;;16.90;41.30;;;;;;5030131;28;20290;-72
2023/05/23 03:15:05;;;;;;;39.33;27.40;;;16.80;42.00;;;;;;5030620;28;20183;-71
2023/05/23 03:17:30;;;;;;;39.10;28.73;;;16.90;42.30;;;;;;5030541;28;20254;-71
2023/05/23 03:19:56;;;;;;;42.73;30.97;;;16.90;41.30;;;;;;5030453;28;20418;-71
2023/05/23 03:22:21;;;;;;;46.03;33.43;;;16.90;41.70;;;;;;5030089;28;20645;-71
2023/05/23 03:24:47;;;;;;;50.07;32.47;;;16.90;41.50;;;;;;5030505;28;20225;-71
2023/05/23 03:27:12;;;;;;;45.63;29.70;;;16.90;42.30;;;;;;5030248;28;20258;-71
2023/05/23 03:29:39;;;;;;;46.67;31.77;;;17.00;41.70;;;;;;5030533;28;20589;-71
2023/05/23 03:32:05;;;;;;;42.77;28.10;;;17.00;42.30;;;;;;5029942;28;20243;-71
2023/05/23 03:34:31;;;;;;;33.80;27.03;;;17.00;41.60;;;;;;5030463;28;20417;-71
2023/05/23 03:36:57;;;;;;;50.90;30.53;;;17.10;41.60;;;;;;5030339;28;20491;-71
2023/05/23 03:39:24;;;;;;;46.10;30.40;;;17.00;41.60;;;;;;5030272;28;20998;-71
2023/05/23 03:41:49;;;;;;;39.83;29.80;;;17.10;41.60;;;;;;5029932;28;20630;-71
2023/05/23 03:44:15;;;;;;;45.70;29.30;;;17.10;42.20;;;;;;5030079;28;20450;-71
2023/05/23 03:46:40;;;;;;;44.17;31.00;;;17.00;42.40;;;;;;5030097;28;20180;-71
2023/05/23 03:49:06;;;;;;;47.10;32.10;;;17.00;42.40;;;;;;5030143;28;20266;-71
2023/05/23 03:51:33;;;;;;;42.37;32.30;;;17.00;42.40;;;;;;5029664;28;20343;-71
2023/05/23 03:53:58;;;;;;;43.23;29.87;;;17.00;41.60;;;;;;5013971;28;20199;-71
2023/05/23 03:56:25;;;;;;;32.83;26.37;;;17.00;41.80;;;;;;5033339;28;20831;-71
2023/05/23 03:58:50;;;;;;;35.57;26.63;;;16.90;42.30;;;;;;5033493;28;20190;-71
2023/05/23 04:01:16;;;;;;;38.00;27.90;;;16.80;43.10;;;;;;5015522;28;20425;-72
2023/05/23 04:03:41;;;;;;;40.43;27.27;;;16.70;44.80;;;;;;4995659;28;1100835;-71
2023/05/23 04:06:07;;;;;;;43.80;27.90;;;16.80;43.30;;;;;;5016777;28;20183;-71
2023/05/23 04:08:32;;;;;;;29.00;22.20;;;16.80;43.40;;;;;;5034648;28;20191;-71
2023/05/23 04:11:00;;;;;;;28.03;21.13;;;16.70;42.20;;;;;;5034448;28;20233;-71
2023/05/23 04:13:26;;;;;;;35.27;25.67;;;16.70;43.20;;;;;;5034480;28;20573;-71
2023/05/23 04:15:54;;;;;;;29.80;23.20;;;16.70;42.10;;;;;;5034466;28;20417;-71
2023/05/23 04:18:20;;;;;;;30.80;21.30;;;16.70;42.40;;;;;;5034465;28;20421;-71
2023/05/23 04:20:46;;;;;;;29.03;21.33;;;16.70;42.10;;;;;;5034351;28;20414;-71
2023/05/23 04:23:12;;;;;;;27.53;23.47;;;16.60;43.20;;;;;;5034347;28;20813;-71
2023/05/23 04:25:38;;;;;;;28.17;22.47;;;16.60;43.40;;;;;;5034325;28;20183;-71
2023/05/23 04:28:05;;;;;;;32.97;22.67;;;16.60;43.40;;;;;;5034353;28;20191;-71
2023/05/23 04:30:30;;;;;;;27.37;19.57;;;16.70;42.60;;;;;;5037914;28;20175;-73
2023/05/23 04:32:59;;;;;;;36.60;19.33;;;16.80;42.20;;;;;;5034884;28;20436;-73
2023/05/23 04:35:28;;;;;;;23.80;20.57;;;16.90;42.40;;;;;;5017003;28;20771;-72
2023/05/23 04:37:56;;;;;;;28.40;24.10;;;17.00;42.10;;;;;;5034617;28;20933;-72
2023/05/23 04:40:23;;;;;;;32.70;23.27;;;17.00;41.30;;;;;;5017109;28;20452;-72
2023/05/23 04:42:50;;;;;;;24.80;20.30;;;17.10;41.70;;;;;;5035127;28;20564;-72
2023/05/23 04:45:16;;;;;;;28.87;20.90;;;17.10;40.30;;;;;;5034133;28;20505;-72
2023/05/23 04:47:43;;;;;;;27.87;20.17;;;17.10;40.70;;;;;;5034378;28;20406;-72
2023/05/23 04:50:09;;;;;;;26.70;19.67;;;17.10;40.30;;;;;;5033945;28;20440;-71
2023/05/23 04:52:35;;;;;;;26.23;22.37;;;17.20;40.20;;;;;;5033666;28;21019;-72
2023/05/23 04:55:01;;;;;;;30.10;20.60;;;17.20;39.70;;;;;;5033979;28;20457;-72
2023/05/23 04:57:26;;;;;;;36.70;26.87;;;17.30;39.10;;;;;;5033902;28;20183;-72
2023/05/23 04:59:52;;;;;;;42.83;25.03;;;17.10;40.00;;;;;;5034421;28;20657;-71
2023/05/23 05:02:18;;;;;;;34.80;26.37;;;17.10;40.50;;;;;;5033763;28;20183;-71
2023/05/23 05:04:43;;;;;;;31.70;25.17;;;17.10;39.50;;;;;;5032983;28;20758;-71
2023/05/23 05:07:09;;;;;;;41.80;28.27;;;17.10;39.90;;;;;;5033944;28;20262;-72
2023/05/23 05:09:35;;;;;;;38.13;26.90;;;17.10;40.70;;;;;;5033804;28;20180;-71
2023/05/23 05:12:00;;;;;;;35.13;26.00;;;17.10;39.50;;;;;;5033549;28;20469;-73
2023/05/23 05:14:26;;;;;;;38.93;28.60;;;17.00;40.40;;;;;;5015886;28;20218;-71
2023/05/23 05:16:53;;;;;;;37.67;28.83;;;17.00;41.60;;;;;;5034247;28;20182;-74
2023/05/23 05:19:20;;;;;;;37.80;22.43;;;17.00;40.40;;;;;;5033929;28;20176;-72
2023/05/23 05:21:45;;;;;;;39.33;29.83;;;17.00;41.30;;;;;;5033306;28;20437;-72
2023/05/23 05:24:11;;;;;;;40.20;27.33;;;16.90;42.30;;;;;;5033269;28;20437;-72
2023/05/23 05:26:37;;;;;;;41.13;28.73;;;17.00;41.70;;;;;;5033336;28;20225;-72
2023/05/23 05:29:03;;;;;;;47.90;31.27;;;16.90;42.30;;;;;;5032213;28;20426;-72
2023/05/23 05:31:28;;;;;;;41.07;29.43;;;16.80;43.10;;;;;;5032844;28;20199;-72
2023/05/23 05:33:54;;;;;;;39.87;30.67;;;16.80;42.70;;;;;;5015076;28;20668;-72
2023/05/23 05:36:20;;;;;;;40.47;30.57;;;16.80;43.30;;;;;;5033002;28;20176;-72
2023/05/23 05:38:46;;;;;;;39.07;27.40;;;16.80;43.30;;;;;;5032628;28;20704;-72
2023/05/23 05:41:12;;;;;;;33.63;26.70;;;16.80;44.60;;;;;;5032954;28;20183;-72
2023/05/23 05:43:37;;;;;;;39.30;25.97;;;16.90;43.10;;;;;;5032574;28;20441;-72
2023/05/23 05:46:03;;;;;;;36.10;27.20;;;17.00;43.20;;;;;;5032841;28;20256;-72
2023/05/23 05:48:29;;;;;;;39.27;25.93;;;17.00;42.50;;;;;;5032758;28;20262;-72
2023/05/23 05:50:55;;;;;;;41.30;29.87;;;17.20;41.80;;;;;;5032602;28;20711;-72
2023/05/23 05:53:20;;;;;;;49.73;28.27;;;17.20;41.30;;;;;;5032240;28;20457;-72
2023/05/23 05:55:46;;;;;;;41.13;29.57;;;17.20;41.00;;;;;;5032679;28;20171;-72
2023/05/23 05:58:11;;;;;;;35.53;29.63;;;17.20;41.20;;;;;;5014609;28;20176;-72
2023/05/23 06:00:41;;;;;;;40.67;29.60;;;17.20;41.40;;;;;;5032437;28;20207;-72
2023/05/23 06:03:09;;;;;;;42.03;30.40;;;17.30;40.40;;;;;;5059162;22;20256;-69
2023/05/23 06:05:39;;;;;;;43.70;32.13;;;17.20;40.60;;;;;;5043395;28;20406;-68
2023/05/23 06:08:05;;;;;;;41.07;32.73;;;17.10;42.50;;;;;;5044784;28;20410;-69
2023/05/23 06:10:30;;;;;;;37.93;28.57;;;17.10;42.50;;;;;;5043620;28;20407;-70
2023/05/23 06:12:57;;;;;;;47.50;32.20;;;17.20;42.60;;;;;;5044531;28;20852;-69
2023/05/23 06:15:23;;;;;;;41.30;30.37;;;17.20;42.60;;;;;;5026279;28;20220;-69
2023/05/23 06:17:48;;;;;;;40.57;31.47;;;17.30;42.70;;;;;;5043785;28;20418;-69
2023/05/23 06:20:14;;;;;;;44.00;33.20;;;17.30;42.00;;;;;;5044865;28;20230;-69
2023/05/23 06:22:40;;;;;;;47.87;32.63;;;17.30;42.40;;;;;;5043967;28;20277;-70
2023/05/23 06:25:06;;;;;;;37.03;30.13;;;17.30;42.10;;;;;;5044106;28;20521;-69
2023/05/23 06:27:32;;;;;;;46.27;31.23;;;17.30;41.80;;;;;;5044084;28;20422;-70
2023/05/23 06:29:58;;;;;;;44.40;34.37;;;17.40;40.90;;;;;;5043966;28;20433;-69
2023/05/23 06:32:23;;;;;;;35.90;29.53;;;17.40;42.20;;;;;;5044650;28;20215;-70
2023/05/23 06:34:49;;;;;;;42.37;32.87;;;17.50;40.80;;;;;;5044793;28;20532;-68
2023/05/23 06:37:15;;;;;;;46.23;33.40;;;17.60;41.10;;;;;;5044306;28;20182;-68
2023/05/23 06:39:41;;;;;;;47.17;36.37;;;17.70;39.70;;;;;;5044215;28;20232;-70
2023/05/23 06:42:06;;;;;;;43.13;33.47;;;17.60;41.00;;;;;;5045438;28;20418;-70
2023/05/23 06:44:32;;;;;;;42.17;33.70;;;17.60;39.80;;;;;;5027124;28;20222;-70
2023/05/23 06:46:58;;;;;;;42.30;31.13;;;17.70;39.40;;;;;;5045463;28;20188;-70
2023/05/23 06:49:24;;;;;;;38.13;31.80;;;17.80;39.90;;;;;;5044445;28;20171;-69
2023/05/23 06:51:50;;;;;;;42.60;31.67;;;17.90;38.80;;;;;;5043771;28;20207;-71
2023/05/23 06:54:16;;;;;;;45.23;34.30;;;17.90;38.00;;;;;;5045132;28;20446;-68
2023/05/23 06:56:41;;;;;;;48.20;33.43;;;18.10;37.30;;;;;;5043780;28;20815;-69
2023/05/23 06:59:07;;;;;;;45.57;33.43;;;18.10;36.50;;;;;;5045282;28;20414;-69
2023/05/23 07:01:33;;;;;;;49.03;37.23;;;18.00;37.80;;;;;;5045008;28;20183;-68
2023/05/23 07:03:58;;;;;;;47.73;34.20;;;17.90;37.40;;;;;;5027953;28;20245;-67
2023/05/23 07:06:26;;;;;;;41.67;32.60;;;18.00;36.60;;;;;;5045151;28;20418;-68
2023/05/23 07:08:52;;;;;;;47.57;33.00;;;18.20;36.40;;;;;;5044870;28;20583;-68
2023/05/23 07:11:17;;;;;;;47.07;33.07;;;18.40;34.80;;;;;;5044575;28;20464;-69
2023/05/23 07:13:43;;;;;;;40.00;35.53;;;18.60;33.00;;;;;;5044067;28;20441;-69
2023/05/23 07:16:09;;;;;;;42.10;35.20;;;18.80;32.20;;;;;;5044797;28;20172;-68
2023/05/23 07:18:34;;;;;;;47.90;34.50;;;18.80;30.90;;;;;;5045184;28;20175;-69
2023/05/23 07:21:00;;;;;;;44.77;35.10;;;18.80;30.40;;;;;;5043874;28;20546;-68
2023/05/23 07:23:25;;;;;;;46.37;35.90;;;18.90;30.50;;;;;;5042819;28;20266;-69
2023/05/23 07:25:51;;;;;;;45.17;36.27;;;18.80;29.20;;;;;;5047669;28;20202;-70
2023/05/23 07:28:18;;;;;;;48.80;35.40;;;18.60;31.00;;;;;;5046169;28;20179;-69
2023/05/23 07:30:43;;;;;;;45.40;35.17;;;18.50;31.30;;;;;;5041216;28;20203;-69
2023/05/23 07:33:09;;;;;;;46.70;36.37;;;18.50;31.30;;;;;;5042489;28;20979;-70
2023/05/23 07:35:35;;;;;;;48.30;36.87;;;18.30;33.10;;;;;;5042124;28;20313;-69
2023/05/23 07:38:00;;;;;;;44.67;36.10;;;18.50;32.20;;;;;;5042593;28;20175;-69
2023/05/23 07:40:26;;;;;;;42.23;35.20;;;18.30;32.40;;;;;;5024085;28;20592;-69
2023/05/23 07:42:53;;;;;;;41.00;32.77;;;18.20;33.00;;;;;;5022763;28;20205;-68
2023/05/23 07:45:18;;;;;;;43.80;34.50;;;18.00;33.40;;;;;;5042012;28;20194;-68
2023/05/23 07:47:44;;;;;;;47.80;35.57;;;18.10;32.90;;;;;;5024940;28;20426;-68
2023/05/23 07:50:09;;;;;;;46.20;33.50;;;18.00;34.20;;;;;;5024387;28;20190;-69
2023/05/23 07:52:35;;;;;;;41.47;33.90;;;18.00;34.40;;;;;;5025333;28;20282;-69
2023/05/23 07:55:01;;;;;;;40.07;33.03;;;18.00;34.20;;;;;;5043767;28;20172;-70
2023/05/23 07:57:26;;;;;;;43.63;36.80;;;18.00;34.80;;;;;;5043169;28;20210;-69
2023/05/23 07:59:52;;;;;;;47.00;37.47;;;18.00;34.30;;;;;;5043694;28;20258;-70
2023/05/23 08:02:19;;;;;;;42.37;33.30;;;17.80;35.40;;;;;;5043956;28;20206;-70
2023/05/23 08:04:48;;;;;;;40.30;34.23;;;17.70;35.70;;;;;;5025856;28;20472;-69
2023/05/23 08:07:14;;;;;;;42.60;33.87;;;17.60;36.90;;;;;;5043256;28;20745;-70
2023/05/23 08:09:41;;;;;;;39.13;33.67;;;17.60;35.80;;;;;;5042720;28;20477;-69
2023/05/23 08:12:08;;;;;;;38.77;34.20;;;17.50;36.70;;;;;;5041425;28;20450;-69
2023/05/23 08:14:34;;;;;;;44.87;37.17;;;17.50;35.50;;;;;;5025084;28;20509;-70
2023/05/23 08:17:01;;;;;;;38.83;32.40;;;17.50;36.20;;;;;;5026034;28;20418;-68
2023/05/23 08:19:27;;;;;;;41.23;34.40;;;17.30;36.50;;;;;;5037477;28;20485;-68
2023/05/23 08:21:52;;;;;;;43.77;34.10;;;17.30;36.90;;;;;;5042108;28;20487;-69
2023/05/23 08:24:21;;;;;;;38.90;33.73;;;17.20;37.30;;;;;;5042520;28;20192;-69
2023/05/23 08:26:47;;;;;;;43.10;31.77;;;17.20;38.40;;;;;;5044016;28;20237;-69
2023/05/23 08:29:13;;;;;;;40.27;31.60;;;17.10;38.60;;;;;;5043495;28;20485;-71
2023/05/23 08:31:39;;;;;;;43.13;33.13;;;17.20;37.30;;;;;;5022939;28;20540;-69
2023/05/23 08:34:05;;;;;;;32.90;29.30;;;17.10;37.30;;;;;;5043139;28;20511;-70
2023/05/23 08:36:33;;;;;;;71.47;44.60;;;17.00;36.60;;;;;;5044454;28;20233;-69
2023/05/23 08:38:58;;;;;;;40.37;32.53;;;17.00;36.00;;;;;;5026936;28;20426;-71
2023/05/23 08:41:25;;;;;;;41.53;30.90;;;17.00;36.10;;;;;;5046503;28;20783;-69
2023/05/23 08:43:51;;;;;;;40.27;32.30;;;17.20;35.00;;;;;;5047881;28;20206;-67
2023/05/23 08:46:17;;;;;;;46.20;31.10;;;17.10;34.20;;;;;;5049069;28;20414;-69
2023/05/23 08:48:47;;;;;;;37.67;28.60;;;17.10;34.20;;;;;;5047929;28;20183;-68
2023/05/23 08:51:14;;;;;;;34.57;27.63;;;17.00;34.70;;;;;;5029608;28;20203;-69
2023/05/23 08:53:45;;;;;;;36.87;29.20;;;17.00;35.20;;;;;;5031260;28;20795;-68
2023/05/23 08:56:11;;;;;;;38.17;31.07;;;17.10;32.80;;;;;;5031905;28;20422;-68
2023/05/23 08:58:42;;;;;;;34.60;29.40;;;17.30;32.60;;;;;;5049144;28;20422;-69
2023/05/23 09:01:09;;;;;;;32.37;27.70;;;17.40;31.40;;;;;;5048494;28;20422;-70
2023/05/23 09:03:38;;;;;;;30.63;27.40;;;17.40;29.70;;;;;;5046869;28;20521;-69
2023/05/23 09:06:08;;;;;;;32.43;28.37;;;17.20;30.90;;;;;;5048072;28;20429;-69
2023/05/23 09:08:34;;;;;;;43.67;32.20;;;17.20;31.80;;;;;;5048451;28;20441;-69
2023/05/23 09:11:02;;;;;;;34.00;28.23;;;17.10;32.00;;;;;;5029665;28;20481;-69
2023/05/23 09:13:30;;;;;;;34.83;27.53;;;17.20;32.00;;;;;;5045750;28;20505;-68
2023/05/23 09:16:00;;;;;;;32.60;27.27;;;17.20;32.90;;;;;;5046758;28;20411;-69
2023/05/23 09:18:26;;;;;;;46.07;29.50;;;17.10;32.50;;;;;;5046920;28;20987;-68
2023/05/23 09:20:52;;;;;;;33.47;29.67;;;17.00;32.90;;;;;;5046647;28;20429;-69
2023/05/23 09:23:18;;;;;;;33.10;27.60;;;17.00;32.50;;;;;;5027855;28;20438;-69
2023/05/23 09:25:48;;;;;;;34.60;28.80;;;17.00;32.80;;;;;;5046499;28;20410;-69
2023/05/23 09:28:14;;;;;;;35.83;26.07;;;17.00;33.20;;;;;;5046890;28;20411;-69
2023/05/23 09:30:39;;;;;;;37.57;28.43;;;16.90;33.20;;;;;;5046384;28;20413;-68
2023/05/23 09:33:05;;;;;;;35.40;29.50;;;17.00;32.40;;;;;;5045632;28;20547;-69
2023/05/23 09:35:30;;;;;;;37.07;27.03;;;17.00;32.50;;;;;;5042932;28;20182;-70
2023/05/23 09:38:00;;;;;;;32.27;27.00;;;17.00;31.90;;;;;;5035648;28;20179;-70
2023/05/23 09:40:30;;;;;;;27.33;24.03;;;17.00;31.90;;;;;;5034651;28;20167;-72
2023/05/23 09:43:04;;;;;;;32.33;27.37;;;17.00;30.80;;;;;;5016615;28;20988;-69
2023/05/23 09:45:31;;;;;;;29.00;24.50;;;16.90;31.20;;;;;;5035290;28;20406;-69
2023/05/23 09:47:56;;;;;;;27.63;23.30;;;17.00;30.50;;;;;;5035864;28;20442;-71
2023/05/23 09:50:23;;;;;;;27.53;23.40;;;16.90;31.10;;;;;;5029221;28;20437;-70
2023/05/23 09:52:49;;;;;;;27.40;24.33;;;16.90;31.00;;;;;;5049051;28;20211;-71
2023/05/23 09:55:16;;;;;;;29.40;23.57;;;16.90;30.90;;;;;;5049613;28;20805;-70
2023/05/23 09:57:43;;;;;;;27.30;23.40;;;16.90;31.50;;;;;;5050336;28;20482;-69
2023/05/23 10:00:10;;;;;;;26.17;21.37;;;17.00;30.50;;;;;;5034866;28;20453;-71
2023/05/23 10:03:07;;;;;;;28.93;23.10;;;17.00;31.80;;;;;;5048549;28;20514;-71
2023/05/23 10:05:35;;;;;;;28.00;23.20;;;16.90;31.80;;;;;;5048576;28;20489;-70
2023/05/23 10:08:06;;;;;;;25.03;21.80;;;16.90;32.70;;;;;;5047568;28;20422;-71
2023/05/23 10:10:32;;;;;;;27.90;22.80;;;16.80;33.50;;;;;;5045826;28;20425;-68
2023/05/23 10:13:03;;;;;;;28.73;23.50;;;16.80;34.80;;;;;;5045339;28;20438;-69
2023/05/23 10:15:37;;;;;;;32.00;22.33;;;16.70;34.60;;;;;;5025665;28;20770;-70
2023/05/23 10:18:20;;;;;;;32.03;23.90;;;16.60;33.40;;;;;;5047243;28;20524;-70
2023/05/23 10:20:48;;;;;;;25.17;22.33;;;16.50;32.50;;;;;;5032601;28;20434;-69
2023/05/23 10:23:16;;;;;;;24.13;20.63;;;16.50;32.60;;;;;;5047636;28;20434;-70
2023/05/23 10:25:43;;;;;;;26.60;22.23;;;16.60;33.50;;;;;;5030749;28;20444;-71
2023/05/23 10:28:10;;;;;;;28.67;21.77;;;16.70;32.70;;;;;;5047653;28;20426;-69
2023/05/23 10:30:36;;;;;;;22.73;19.27;;;16.80;31.10;;;;;;5046303;28;20425;-69
2023/05/23 10:33:03;;;;;;;23.30;20.33;;;16.90;31.30;;;;;;5049008;28;20434;-70
2023/05/23 10:35:32;;;;;;;26.50;19.77;;;16.90;32.90;;;;;;5021971;28;20414;-71
2023/05/23 10:38:24;;;;;;;28.07;19.17;;;17.00;31.60;;;;;;5033065;28;20414;-68
2023/05/23 10:41:16;;;;;;;23.87;18.87;;;17.30;31.00;;;;;;5033079;28;20785;-69
2023/05/23 10:44:03;;;;;;;26.07;23.30;;;17.40;28.90;;;;;;5032798;28;20472;-69
2023/05/23 10:46:56;;;;;;;24.20;19.80;;;17.50;29.20;;;;;;5033084;28;20488;-69
2023/05/23 10:49:37;;;;;;;26.93;20.43;;;17.40;29.50;;;;;;5033106;28;20976;-68
2023/05/23 10:52:03;;;;;;;23.73;21.17;;;17.60;30.00;;;;;;5032439;28;20453;-68
2023/05/23 10:54:43;;;;;;;21.60;18.00;;;17.80;29.30;;;;;;5014948;28;20813;-68
2023/05/23 10:57:11;;;;;;;29.30;22.17;;;17.90;28.70;;;;;;5032610;28;20853;-68
2023/05/23 10:59:38;;;;;;;23.27;17.40;;;18.00;29.50;;;;;;5014772;28;20418;-68
2023/05/23 11:02:14;;;;;;;25.30;19.20;;;18.20;29.10;;;;;;5032348;28;20468;-68
2023/05/23 11:04:41;;;;;;;22.27;18.60;;;18.30;28.30;;;;;;5032110;28;20555;-68
2023/05/23 11:07:30;;;;;;;20.53;16.50;;;18.50;28.50;;;;;;5032381;28;20900;-68
2023/05/23 11:10:09;;;;;;;18.93;16.90;;;19.00;28.80;;;;;;5032743;28;20845;-68
2023/05/23 11:12:40;;;;;;;23.40;14.73;;;19.30;25.60;;;;;;5034768;28;20457;-66
2023/05/23 11:15:19;;;;;;;21.07;17.70;;;19.40;24.90;;;;;;4999884;28;20435;-68
2023/05/23 11:17:52;;;;;;;20.60;16.83;;;19.70;24.20;;;;;;5028344;28;20445;-70
2023/05/23 11:20:23;;;;;;;19.97;16.30;;;19.60;23.00;;;;;;5040540;28;20425;-70
2023/05/23 11:23:02;;;;;;;21.77;16.90;;;20.10;24.70;;;;;;5006598;28;20459;-69
2023/05/23 11:25:46;;;;;;;18.30;15.90;;;20.50;23.00;;;;;;5023755;28;20411;-69
2023/05/23 11:28:12;;;;;;;16.30;14.07;;;20.90;15.60;;;;;;5027273;28;20511;-68
2023/05/23 11:30:38;;;;;;;17.20;11.80;;;21.30;12.40;;;;;;5027804;28;20422;-70
2023/05/23 11:33:12;;;;;;;16.47;14.10;;;21.40;10.50;;;;;;5028272;28;20525;-68
2023/05/23 11:35:43;;;;;;;21.17;16.37;;;21.60;9.60;;;;;;5027485;28;20463;-69
2023/05/23 11:38:09;;;;;;;20.43;14.63;;;21.60;8.80;;;;;;5038126;28;20402;-69
2023/05/23 11:40:37;;;;;;;16.70;14.87;;;20.70;10.20;;;;;;5045156;28;20464;-69
2023/05/23 11:43:06;;;;;;;18.87;15.80;;;20.70;10.40;;;;;;5031621;28;20493;-69
2023/05/23 11:45:34;;;;;;;12.53;11.10;;;20.50;10.90;;;;;;5028932;28;20814;-68
2023/05/23 11:48:10;;;;;;;16.33;14.60;;;20.20;10.00;;;;;;5034315;28;20414;-70
2023/05/23 11:50:51;;;;;;;15.10;13.50;;;19.80;11.20;;;;;;5043957;28;20446;-68
2023/05/23 11:53:23;;;;;;;17.30;12.47;;;19.90;12.00;;;;;;5047528;28;20442;-70
2023/05/23 11:55:54;;;;;;;18.87;14.37;;;20.30;11.50;;;;;;5023699;28;20434;-69
2023/05/23 11:58:21;;;;;;;13.33;10.50;;;20.30;11.20;;;;;;5033962;28;20466;-67
2023/05/23 12:00:47;;;;;;;15.50;11.77;;;20.40;10.80;;;;;;5010474;28;20434;-68
2023/05/23 12:03:13;;;;;;;21.53;13.47;;;20.80;10.30;;;;;;5033923;28;20462;-69
2023/05/23 12:05:41;;;;;;;20.93;13.63;;;20.80;8.80;;;;;;5027489;28;20175;-69
2023/05/23 12:08:11;;;;;;;14.37;12.70;;;21.50;8.60;;;;;;5027761;28;20663;-69
2023/05/23 12:10:47;;;;;;;12.93;9.40;;;22.00;7.30;;;;;;5027435;28;20501;-69
2023/05/23 12:13:12;;;;;;;14.33;12.77;;;22.20;5.40;;;;;;5027331;28;20661;-69
2023/05/23 12:15:38;;;;;;;14.87;12.10;;;22.20;6.00;;;;;;5030395;28;20437;-69
2023/05/23 12:18:04;;;;;;;17.50;11.50;;;22.20;6.50;;;;;;5031955;28;20194;-69
2023/05/23 12:20:33;;;;;;;29.87;14.10;;;21.80;6.50;;;;;;5031270;28;20708;-69
2023/05/23 12:23:03;;;;;;;11.87;9.70;;;21.40;6.80;;;;;;5030420;28;20673;-69
2023/05/23 12:25:29;;;;;;;11.30;8.23;;;21.30;5.20;;;;;;5031374;28;20492;-70
2023/05/23 12:27:55;;;;;;;11.17;9.83;;;21.50;5.50;;;;;;5031688;28;20902;-69
2023/05/23 12:30:21;;;;;;;11.87;8.83;;;21.60;5.20;;;;;;5031403;28;20657;-69